createdAt,value
2023-03-26T00:00:04.797Z,20.0994
2023-03-26T00:01:06.431Z,20.1006
2023-03-26T00:02:08.255Z,20.0840
2023-03-26T00:03:09.703Z,20.0813
2023-03-26T00:04:11.468Z,20.0679
2023-03-26T00:05:13.102Z,20.0419
2023-03-26T00:06:14.664Z,20.0558
2023-03-26T00:07:16.403Z,20.0447
2023-03-26T00:08:18.068Z,20.0408
2023-03-26T00:09:19.578Z,20.0462
2023-03-26T00:10:21.365Z,20.0552
2023-03-26T00:11:22.937Z,20.0277
2023-03-26T00:12:24.584Z,20.0425
2023-03-26T00:13:26.231Z,20.0394
2023-03-26T00:14:27.862Z,20.0462
2023-03-26T00:15:29.484Z,20.0449
2023-03-26T00:16:31.197Z,20.0476
2023-03-26T00:17:32.830Z,20.0414
2023-03-26T00:18:34.504Z,20.0219
2023-03-26T00:19:36.090Z,20.0312
2023-03-26T00:20:37.740Z,20.0550
2023-03-26T00:21:39.394Z,20.0657
2023-03-26T00:22:41.109Z,20.0379
2023-03-26T00:23:42.671Z,20.0562
2023-03-26T00:24:44.339Z,20.0667
2023-03-26T00:25:46.771Z,20.0702
2023-03-26T00:26:47.648Z,20.0842
2023-03-26T00:27:49.294Z,20.0879
2023-03-26T00:28:50.953Z,20.0856
2023-03-26T00:29:52.563Z,20.0909
2023-03-26T00:30:54.279Z,20.1061
2023-03-26T00:31:55.871Z,20.1226
2023-03-26T00:32:57.570Z,20.1131
2023-03-26T00:33:59.161Z,20.1170
2023-03-26T00:35:00.845Z,20.1480
2023-03-26T00:36:04.397Z,20.1620
2023-03-26T00:37:04.125Z,20.1524
2023-03-26T00:38:05.776Z,20.1507
2023-03-26T00:39:07.417Z,20.1378
2023-03-26T00:40:09.040Z,20.1565
2023-03-26T00:41:10.712Z,20.1684
2023-03-26T00:42:12.342Z,20.1429
2023-03-26T00:43:14.019Z,20.1443
2023-03-26T00:44:15.643Z,20.1359
2023-03-26T00:45:17.304Z,20.1485
2023-03-26T00:46:18.998Z,20.1889
2023-03-26T00:47:20.761Z,20.1992
2023-03-26T00:48:28.846Z,20.1926
2023-03-26T00:49:23.890Z,20.1949
2023-03-26T00:50:25.529Z,20.1805
2023-03-26T00:51:27.218Z,20.1867
2023-03-26T00:52:28.833Z,20.2175
2023-03-26T00:53:30.667Z,20.2294
2023-03-26T00:54:32.142Z,20.2563
2023-03-26T00:55:33.805Z,20.2787
2023-03-26T00:56:35.476Z,20.2388
2023-03-26T00:57:37.185Z,20.2095
2023-03-26T00:58:38.751Z,20.2312
2023-03-26T00:59:40.403Z,20.2520
2023-03-26T01:00:42.034Z,20.2477
2023-03-26T01:01:43.726Z,20.2296
2023-03-26T01:02:45.435Z,20.2645
2023-03-26T01:04:04.830Z,20.2528
2023-03-26T01:04:48.759Z,20.2567
2023-03-26T01:05:50.303Z,20.3251
2023-03-26T01:06:51.916Z,20.3274
2023-03-26T01:07:53.590Z,20.2867
2023-03-26T01:08:55.251Z,20.2731
2023-03-26T01:09:56.871Z,20.2914
2023-03-26T01:10:58.514Z,20.2992
2023-03-26T01:12:00.181Z,20.3407
2023-03-26T01:13:01.812Z,20.3518
2023-03-26T01:14:03.502Z,20.3432
2023-03-26T01:15:05.124Z,20.3479
2023-03-26T01:16:06.822Z,20.3239
2023-03-26T01:17:08.405Z,20.3296
2023-03-26T01:18:10.092Z,20.3039
2023-03-26T01:19:11.721Z,20.3508
2023-03-26T01:20:13.376Z,20.3580
2023-03-26T01:21:15.000Z,20.3828
2023-03-26T01:22:16.687Z,20.3915
2023-03-26T01:23:18.326Z,20.3635
2023-03-26T01:24:20.001Z,20.3818
2023-03-26T01:25:21.604Z,20.3767
2023-03-26T01:26:23.261Z,20.4159
2023-03-26T01:27:24.902Z,20.4256
2023-03-26T01:28:26.573Z,20.4071
2023-03-26T01:29:28.242Z,20.4190
2023-03-26T01:30:29.869Z,20.3880
2023-03-26T01:31:31.483Z,20.4015
2023-03-26T01:32:33.321Z,20.4175
2023-03-26T01:33:34.855Z,20.4036
2023-03-26T01:34:36.502Z,20.3855
2023-03-26T01:35:38.118Z,20.3574
2023-03-26T01:36:39.765Z,20.3744
2023-03-26T01:37:41.381Z,20.4426
2023-03-26T01:38:43.060Z,20.4629
2023-03-26T01:39:44.713Z,20.4535
2023-03-26T01:40:46.351Z,20.4701
2023-03-26T01:41:47.986Z,20.4576
2023-03-26T01:42:49.661Z,20.4679
2023-03-26T01:43:51.289Z,20.4950
2023-03-26T01:44:52.978Z,20.4944
2023-03-26T01:45:54.738Z,20.4806
2023-03-26T01:46:56.339Z,20.4746
2023-03-26T01:47:57.905Z,20.4888
2023-03-26T01:48:59.532Z,20.4839
2023-03-26T01:50:01.207Z,20.4888
2023-03-26T01:51:02.838Z,20.5030
2023-03-26T01:52:04.470Z,20.4968
2023-03-26T01:53:06.143Z,20.5174
2023-03-26T01:54:07.840Z,20.5276
2023-03-26T01:55:09.533Z,20.5548
2023-03-26T01:56:11.172Z,20.5398
2023-03-26T01:57:12.822Z,20.4939
2023-03-26T01:58:14.439Z,20.4841
2023-03-26T01:59:16.117Z,20.4991
2023-03-26T02:00:17.777Z,20.4966
2023-03-26T02:01:19.481Z,20.5437
2023-03-26T02:02:21.173Z,20.5517
2023-03-26T02:03:22.854Z,20.5369
2023-03-26T02:04:24.362Z,20.5685
2023-03-26T02:05:26.063Z,20.5621
2023-03-26T02:06:27.652Z,20.5332
2023-03-26T02:07:29.328Z,20.5568
2023-03-26T02:08:30.963Z,20.5435
2023-03-26T02:09:32.614Z,20.5418
2023-03-26T02:10:34.270Z,20.5669
2023-03-26T02:11:36.224Z,20.5638
2023-03-26T02:12:37.544Z,20.5535
2023-03-26T02:13:39.217Z,20.5646
2023-03-26T02:14:40.862Z,20.5695
2023-03-26T02:15:42.541Z,20.5782
2023-03-26T02:16:44.166Z,20.5903
2023-03-26T02:17:45.827Z,20.5835
2023-03-26T02:18:47.498Z,20.5897
2023-03-26T02:19:49.125Z,20.5689
2023-03-26T02:20:50.773Z,20.5344
2023-03-26T02:21:52.408Z,20.5305
2023-03-26T02:22:54.043Z,20.5496
2023-03-26T02:23:55.715Z,20.5636
2023-03-26T02:24:57.349Z,20.5776
2023-03-26T02:25:59.043Z,20.5962
2023-03-26T02:27:00.642Z,20.5792
2023-03-26T02:28:02.304Z,20.5847
2023-03-26T02:29:03.941Z,20.5804
2023-03-26T02:30:05.606Z,20.5796
2023-03-26T02:31:07.274Z,20.6055
2023-03-26T02:32:08.909Z,20.6279
2023-03-26T02:33:10.591Z,20.6295
2023-03-26T02:34:12.220Z,20.5872
2023-03-26T02:35:13.894Z,20.5519
2023-03-26T02:36:15.601Z,20.5765
2023-03-26T02:37:17.145Z,20.6112
2023-03-26T02:38:18.775Z,20.6160
2023-03-26T02:39:20.445Z,20.6303
2023-03-26T02:40:22.096Z,20.6149
2023-03-26T02:41:23.749Z,20.5833
2023-03-26T02:42:25.385Z,20.5301
2023-03-26T02:43:27.019Z,20.4588
2023-03-26T02:44:28.680Z,20.3717
2023-03-26T02:45:30.315Z,20.3516
2023-03-26T02:46:32.054Z,20.3181
2023-03-26T02:47:33.692Z,20.3442
2023-03-26T02:48:35.271Z,20.3177
2023-03-26T02:49:36.899Z,20.3130
2023-03-26T02:50:38.578Z,20.3401
2023-03-26T02:51:40.210Z,20.3574
2023-03-26T02:52:41.871Z,20.3539
2023-03-26T02:53:43.496Z,20.3604
2023-03-26T02:54:45.154Z,20.3576
2023-03-26T02:55:46.792Z,20.3962
2023-03-26T02:56:48.505Z,20.4537
2023-03-26T02:57:50.096Z,20.5069
2023-03-26T02:58:51.757Z,20.5490
2023-03-26T02:59:53.391Z,20.5901
2023-03-26T03:00:55.143Z,20.6314
2023-03-26T03:01:56.759Z,20.6305
2023-03-26T03:02:58.443Z,20.6168
2023-03-26T03:03:59.984Z,20.6240
2023-03-26T03:05:01.765Z,20.6511
2023-03-26T03:06:03.269Z,20.6761
2023-03-26T03:07:05.069Z,20.6911
2023-03-26T03:08:06.643Z,20.7024
2023-03-26T03:09:08.284Z,20.6998
2023-03-26T03:10:09.973Z,20.7131
2023-03-26T03:11:11.592Z,20.7164
2023-03-26T03:12:13.299Z,20.6490
2023-03-26T03:13:14.941Z,20.6291
2023-03-26T03:14:16.511Z,20.6275
2023-03-26T03:15:18.247Z,20.6266
2023-03-26T03:16:19.921Z,20.6398
2023-03-26T03:17:21.559Z,20.6879
2023-03-26T03:18:23.194Z,20.7000
2023-03-26T03:19:24.745Z,20.7158
2023-03-26T03:20:26.363Z,20.7396
2023-03-26T03:21:28.037Z,20.7530
2023-03-26T03:22:29.689Z,20.7304
2023-03-26T03:23:31.319Z,20.7211
2023-03-26T03:24:32.961Z,20.7189
2023-03-26T03:25:34.636Z,20.7415
2023-03-26T03:26:36.253Z,20.7357
2023-03-26T03:27:37.949Z,20.7466
2023-03-26T03:28:39.566Z,20.7616
2023-03-26T03:29:41.212Z,20.7561
2023-03-26T03:30:42.897Z,20.7862
2023-03-26T03:31:44.520Z,20.7887
2023-03-26T03:32:46.238Z,20.8051
2023-03-26T03:33:47.819Z,20.8008
2023-03-26T03:34:49.438Z,20.7770
2023-03-26T03:35:51.113Z,20.7774
2023-03-26T03:36:52.726Z,20.7737
2023-03-26T03:37:54.415Z,20.7762
2023-03-26T03:38:56.041Z,20.7591
2023-03-26T03:39:57.694Z,20.7610
2023-03-26T03:40:59.324Z,20.7721
2023-03-26T03:42:00.998Z,20.7772
2023-03-26T03:43:02.665Z,20.7682
2023-03-26T03:44:04.300Z,20.7561
2023-03-26T03:45:05.928Z,20.7661
2023-03-26T03:46:07.639Z,20.7595
2023-03-26T03:47:09.211Z,20.7616
2023-03-26T03:48:10.942Z,20.7630
2023-03-26T03:49:12.526Z,20.7497
2023-03-26T03:50:14.200Z,20.7593
2023-03-26T03:51:15.841Z,20.7727
2023-03-26T03:52:17.487Z,20.7452
2023-03-26T03:53:19.144Z,20.7698
2023-03-26T03:54:20.786Z,20.7478
2023-03-26T03:55:22.409Z,20.7400
2023-03-26T03:56:24.101Z,20.7745
2023-03-26T03:57:25.728Z,20.7832
2023-03-26T03:58:27.424Z,20.7844
2023-03-26T03:59:29.004Z,20.7817
2023-03-26T04:00:30.696Z,20.7807
2023-03-26T04:01:32.304Z,20.7758
2023-03-26T04:02:34.076Z,20.7694
2023-03-26T04:03:35.778Z,20.7563
2023-03-26T04:04:37.331Z,20.7606
2023-03-26T04:05:38.920Z,20.7760
2023-03-26T04:06:40.579Z,20.7739
2023-03-26T04:07:42.206Z,20.7632
2023-03-26T04:08:43.995Z,20.7585
2023-03-26T04:09:45.504Z,20.7616
2023-03-26T04:10:47.163Z,20.7536
2023-03-26T04:11:48.802Z,20.7641
2023-03-26T04:12:50.461Z,20.7830
2023-03-26T04:13:52.113Z,20.7784
2023-03-26T04:14:53.756Z,20.7799
2023-03-26T04:15:55.656Z,20.7749
2023-03-26T04:16:57.061Z,20.7565
2023-03-26T04:17:58.760Z,20.7474
2023-03-26T04:19:00.371Z,20.7433
2023-03-26T04:20:01.983Z,20.7489
2023-03-26T04:21:03.638Z,20.7408
2023-03-26T04:22:05.288Z,20.7121
2023-03-26T04:23:06.948Z,20.7090
2023-03-26T04:24:08.597Z,20.7181
2023-03-26T04:25:10.259Z,20.6969
2023-03-26T04:26:11.867Z,20.7020
2023-03-26T04:27:13.527Z,20.6963
2023-03-26T04:28:15.162Z,20.6955
2023-03-26T04:29:16.844Z,20.6911
2023-03-26T04:30:18.456Z,20.7037
2023-03-26T04:31:20.163Z,20.7088
2023-03-26T04:32:21.773Z,20.6971
2023-03-26T04:33:23.438Z,20.7008
2023-03-26T04:34:25.127Z,20.7090
2023-03-26T04:35:26.763Z,20.7224
2023-03-26T04:36:28.390Z,20.7129
2023-03-26T04:37:30.020Z,20.7047
2023-03-26T04:38:31.645Z,20.7047
2023-03-26T04:39:33.352Z,20.6916
2023-03-26T04:40:34.969Z,20.7028
2023-03-26T04:41:36.630Z,20.6887
2023-03-26T04:42:38.253Z,20.6862
2023-03-26T04:43:39.929Z,20.6667
2023-03-26T04:44:41.638Z,20.6634
2023-03-26T04:45:43.209Z,20.6258
2023-03-26T04:46:44.853Z,20.6408
2023-03-26T04:47:46.802Z,20.6564
2023-03-26T04:48:48.141Z,20.6503
2023-03-26T04:49:49.839Z,20.6755
2023-03-26T04:50:51.448Z,20.6778
2023-03-26T04:51:53.095Z,20.6390
2023-03-26T04:52:54.750Z,20.6137
2023-03-26T04:53:56.418Z,20.6043
2023-03-26T04:54:58.060Z,20.6047
2023-03-26T04:55:59.699Z,20.6069
2023-03-26T04:57:01.343Z,20.6168
2023-03-26T04:58:02.986Z,20.6271
2023-03-26T04:59:04.628Z,20.6205
2023-03-26T05:00:06.317Z,20.6344
2023-03-26T05:01:10.318Z,20.6088
2023-03-26T05:02:09.620Z,20.6172
2023-03-26T05:03:11.218Z,20.6049
2023-03-26T05:04:12.893Z,20.6014
2023-03-26T05:05:14.543Z,20.6227
2023-03-26T05:06:16.195Z,20.6340
2023-03-26T05:07:17.819Z,20.6379
2023-03-26T05:08:19.492Z,20.6038
2023-03-26T05:09:21.126Z,20.5607
2023-03-26T05:10:22.869Z,20.5469
2023-03-26T05:11:24.430Z,20.5295
2023-03-26T05:12:26.100Z,20.5227
2023-03-26T05:13:27.713Z,20.4950
2023-03-26T05:14:29.390Z,20.5147
2023-03-26T05:15:31.053Z,20.5274
2023-03-26T05:16:32.706Z,20.5005
2023-03-26T05:17:34.382Z,20.5087
2023-03-26T05:18:36.015Z,20.5244
2023-03-26T05:19:37.624Z,20.5334
2023-03-26T05:20:39.328Z,20.5572
2023-03-26T05:21:40.933Z,20.5599
2023-03-26T05:22:42.592Z,20.5437
2023-03-26T05:23:44.233Z,20.5523
2023-03-26T05:24:45.911Z,20.5418
2023-03-26T05:25:47.567Z,20.5221
2023-03-26T05:26:49.205Z,20.5161
2023-03-26T05:27:50.820Z,20.5028
2023-03-26T05:28:52.733Z,20.5077
2023-03-26T05:29:54.109Z,20.4995
2023-03-26T05:30:55.984Z,20.4849
2023-03-26T05:31:57.432Z,20.4564
2023-03-26T05:32:59.125Z,20.4241
2023-03-26T05:34:00.861Z,20.4272
2023-03-26T05:35:02.352Z,20.4498
2023-03-26T05:36:04.081Z,20.4576
2023-03-26T05:37:05.667Z,20.4171
2023-03-26T05:38:07.317Z,20.4151
2023-03-26T05:39:08.947Z,20.4426
2023-03-26T05:40:10.640Z,20.4566
2023-03-26T05:41:12.285Z,20.4508
2023-03-26T05:42:13.922Z,20.4662
2023-03-26T05:43:15.549Z,20.4693
2023-03-26T05:44:17.234Z,20.4311
2023-03-26T05:45:18.853Z,20.4157
2023-03-26T05:46:20.653Z,20.4301
2023-03-26T05:47:22.143Z,20.4122
2023-03-26T05:48:23.828Z,20.4288
2023-03-26T05:49:25.460Z,20.4194
2023-03-26T05:50:27.129Z,20.4104
2023-03-26T05:51:28.775Z,20.4040
2023-03-26T05:52:30.430Z,20.3873
2023-03-26T05:53:32.066Z,20.3822
2023-03-26T05:54:33.740Z,20.3586
2023-03-26T05:55:35.365Z,20.3528
2023-03-26T05:56:37.175Z,20.3459
2023-03-26T05:57:38.734Z,20.3198
2023-03-26T05:58:40.413Z,20.3424
2023-03-26T05:59:42.029Z,20.3424
2023-03-26T06:00:43.705Z,20.3543
2023-03-26T06:01:45.362Z,20.3535
2023-03-26T06:02:47.091Z,20.3450
2023-03-26T06:03:48.707Z,20.3617
2023-03-26T06:04:50.349Z,20.3498
2023-03-26T06:05:51.933Z,20.3500
2023-03-26T06:06:53.634Z,20.3393
2023-03-26T06:07:55.224Z,20.3411
2023-03-26T06:09:01.910Z,20.3245
2023-03-26T06:09:58.533Z,20.3130
2023-03-26T06:11:00.221Z,20.3126
2023-03-26T06:12:01.874Z,20.3231
2023-03-26T06:13:03.513Z,20.3159
2023-03-26T06:14:05.126Z,20.3029
2023-03-26T06:15:06.807Z,20.2920
2023-03-26T06:16:08.459Z,20.3048
2023-03-26T06:17:10.180Z,20.3044
2023-03-26T06:18:11.791Z,20.2955
2023-03-26T06:19:13.519Z,20.0482
2023-03-26T06:20:15.037Z,19.4127
2023-03-26T06:21:16.704Z,18.8778
2023-03-26T06:22:18.358Z,18.6350
2023-03-26T06:23:19.996Z,18.7067
2023-03-26T06:24:21.630Z,18.8150
2023-03-26T06:25:23.295Z,18.5730
2023-03-26T06:26:24.936Z,18.1587
2023-03-26T06:27:26.625Z,18.0782
2023-03-26T06:28:28.244Z,18.0960
2023-03-26T06:29:29.918Z,18.0293
2023-03-26T06:30:31.551Z,17.8797
2023-03-26T06:31:33.257Z,17.7725
2023-03-26T06:32:34.913Z,17.8417
2023-03-26T06:33:36.517Z,18.1825
2023-03-26T06:34:38.146Z,18.4863
2023-03-26T06:35:39.855Z,18.7942
2023-03-26T06:36:41.465Z,18.9836
2023-03-26T06:37:43.146Z,19.0543
2023-03-26T06:38:44.770Z,19.1641
2023-03-26T06:39:46.429Z,19.2668
2023-03-26T06:40:48.069Z,19.3679
2023-03-26T06:41:49.730Z,19.4480
2023-03-26T06:43:08.643Z,19.5524
2023-03-26T06:43:53.048Z,19.6499
2023-03-26T06:44:54.669Z,19.6740
2023-03-26T06:45:56.357Z,19.7097
2023-03-26T06:46:58.046Z,19.7567
2023-03-26T06:47:59.734Z,19.8303
2023-03-26T06:49:01.283Z,19.8712
2023-03-26T06:50:02.977Z,19.8952
2023-03-26T06:51:04.608Z,19.9564
2023-03-26T06:52:06.274Z,20.0250
2023-03-26T06:53:07.913Z,20.1382
2023-03-26T06:54:09.563Z,20.2004
2023-03-26T06:55:11.220Z,20.2565
2023-03-26T06:56:12.873Z,20.2542
2023-03-26T06:57:14.527Z,20.2879
2023-03-26T06:58:16.210Z,20.3113
2023-03-26T06:59:17.846Z,20.3699
2023-03-26T07:00:19.485Z,20.3945
2023-03-26T07:01:21.165Z,20.4011
2023-03-26T07:02:22.819Z,20.4303
2023-03-26T07:03:24.433Z,20.4685
2023-03-26T07:04:26.110Z,20.4888
2023-03-26T07:05:27.781Z,20.5067
2023-03-26T07:06:29.391Z,20.5128
2023-03-26T07:07:31.047Z,20.5217
2023-03-26T07:08:32.720Z,20.5336
2023-03-26T07:09:34.360Z,20.5309
2023-03-26T07:10:35.987Z,20.5319
2023-03-26T07:11:37.656Z,20.5525
2023-03-26T07:12:39.292Z,20.5455
2023-03-26T07:13:40.978Z,20.5638
2023-03-26T07:14:42.601Z,20.5817
2023-03-26T07:15:44.282Z,20.5827
2023-03-26T07:16:45.903Z,20.5246
2023-03-26T07:17:47.577Z,20.5061
2023-03-26T07:18:49.452Z,20.5533
2023-03-26T07:19:50.874Z,20.5843
2023-03-26T07:20:52.605Z,20.6299
2023-03-26T07:21:54.177Z,20.6570
2023-03-26T07:22:55.801Z,20.6747
2023-03-26T07:23:57.493Z,20.6546
2023-03-26T07:24:59.111Z,20.6564
2023-03-26T07:26:00.786Z,20.6825
2023-03-26T07:27:02.429Z,20.6998
2023-03-26T07:28:04.088Z,20.7123
2023-03-26T07:29:05.728Z,20.6581
2023-03-26T07:30:07.396Z,20.5975
2023-03-26T07:31:09.015Z,20.6322
2023-03-26T07:32:10.680Z,20.6646
2023-03-26T07:33:12.314Z,20.7234
2023-03-26T07:34:14.011Z,20.8127
2023-03-26T07:35:15.629Z,20.7965
2023-03-26T07:36:17.304Z,20.6957
2023-03-26T07:37:18.925Z,20.6876
2023-03-26T07:38:20.592Z,20.7530
2023-03-26T07:39:22.250Z,20.7977
2023-03-26T07:40:23.900Z,20.8086
2023-03-26T07:41:25.537Z,20.8148
2023-03-26T07:42:27.223Z,20.7864
2023-03-26T07:43:28.852Z,20.8021
2023-03-26T07:44:30.525Z,20.8210
2023-03-26T07:45:32.165Z,20.8240
2023-03-26T07:46:33.800Z,20.8012
2023-03-26T07:47:35.478Z,20.7873
2023-03-26T07:48:37.104Z,20.8060
2023-03-26T07:49:38.758Z,20.7825
2023-03-26T07:50:40.410Z,20.6312
2023-03-26T07:51:42.048Z,20.6835
2023-03-26T07:52:43.708Z,20.7070
2023-03-26T07:53:45.341Z,20.6425
2023-03-26T07:54:47.048Z,20.6123
2023-03-26T07:55:48.663Z,20.6248
2023-03-26T07:56:50.386Z,20.6229
2023-03-26T07:57:51.936Z,20.6700
2023-03-26T07:58:53.615Z,20.6737
2023-03-26T07:59:55.266Z,20.7369
2023-03-26T08:00:57.125Z,20.7704
2023-03-26T08:01:58.543Z,20.7495
2023-03-26T08:03:00.286Z,20.7581
2023-03-26T08:04:23.424Z,20.7852
2023-03-26T08:05:03.597Z,20.8132
2023-03-26T08:06:05.134Z,20.8306
2023-03-26T08:07:06.803Z,20.8193
2023-03-26T08:08:08.443Z,20.8156
2023-03-26T08:09:10.109Z,20.7887
2023-03-26T08:10:12.016Z,20.7600
2023-03-26T08:11:13.422Z,20.6948
2023-03-26T08:12:15.039Z,20.6737
2023-03-26T08:13:16.732Z,20.7176
2023-03-26T08:14:18.336Z,20.6975
2023-03-26T08:15:20.037Z,20.6447
2023-03-26T08:16:21.666Z,20.6043
2023-03-26T08:17:23.346Z,20.6217
2023-03-26T08:18:24.942Z,20.5960
2023-03-26T08:19:26.612Z,20.5882
2023-03-26T08:20:28.339Z,20.6445
2023-03-26T08:21:29.918Z,20.6653
2023-03-26T08:22:31.591Z,20.6612
2023-03-26T08:23:33.220Z,20.6217
2023-03-26T08:24:34.893Z,20.6168
2023-03-26T08:25:38.001Z,20.5872
2023-03-26T08:26:38.146Z,20.5336
2023-03-26T08:27:39.809Z,20.5005
2023-03-26T08:28:41.471Z,20.5724
2023-03-26T08:29:43.133Z,20.6166
2023-03-26T08:30:44.812Z,20.6162
2023-03-26T08:31:46.411Z,20.6032
2023-03-26T08:32:48.132Z,20.5554
2023-03-26T08:33:49.731Z,20.5504
2023-03-26T08:34:51.402Z,20.5262
2023-03-26T08:35:53.132Z,20.5223
2023-03-26T08:36:54.721Z,20.5085
2023-03-26T08:37:56.332Z,20.4985
2023-03-26T08:38:58.001Z,20.4954
2023-03-26T08:39:59.643Z,20.4847
2023-03-26T08:41:01.332Z,20.4810
2023-03-26T08:42:02.931Z,20.4623
2023-03-26T08:43:04.602Z,20.4586
2023-03-26T08:44:06.260Z,20.4418
2023-03-26T08:45:07.927Z,20.4763
2023-03-26T08:46:09.597Z,20.4623
2023-03-26T08:47:11.204Z,20.4391
2023-03-26T08:48:12.844Z,20.4122
2023-03-26T08:49:14.501Z,20.4011
2023-03-26T08:50:16.238Z,20.3956
2023-03-26T08:51:17.836Z,20.3943
2023-03-26T08:52:19.446Z,20.3847
2023-03-26T08:53:21.116Z,20.3898
2023-03-26T08:54:22.750Z,20.3734
2023-03-26T08:55:24.423Z,20.3647
2023-03-26T08:56:26.098Z,20.3723
2023-03-26T08:57:27.716Z,20.3709
2023-03-26T08:58:29.352Z,20.3633
2023-03-26T08:59:31.029Z,20.3590
2023-03-26T09:00:32.663Z,20.3791
2023-03-26T09:01:34.393Z,20.3627
2023-03-26T09:02:36.030Z,20.3781
2023-03-26T09:03:37.625Z,20.3580
2023-03-26T09:04:39.272Z,20.3543
2023-03-26T09:05:40.958Z,20.3748
2023-03-26T09:06:42.646Z,20.3822
2023-03-26T09:07:44.293Z,20.3520
2023-03-26T09:08:54.212Z,20.3444
2023-03-26T09:09:47.505Z,20.3383
2023-03-26T09:10:49.154Z,20.3208
2023-03-26T09:11:50.823Z,20.3134
2023-03-26T09:12:52.440Z,20.3210
2023-03-26T09:13:54.132Z,20.3311
2023-03-26T09:14:55.757Z,20.3368
2023-03-26T09:15:57.511Z,20.3220
2023-03-26T09:16:59.080Z,20.3046
2023-03-26T09:18:00.762Z,20.3097
2023-03-26T09:19:02.345Z,20.3210
2023-03-26T09:20:04.026Z,20.3167
2023-03-26T09:21:05.673Z,20.3089
2023-03-26T09:22:07.380Z,20.3237
2023-03-26T09:23:08.960Z,20.3218
2023-03-26T09:24:10.624Z,20.3013
2023-03-26T09:25:12.276Z,20.2840
2023-03-26T09:26:13.929Z,20.2684
2023-03-26T09:27:15.589Z,20.2549
2023-03-26T09:28:17.225Z,20.2596
2023-03-26T09:29:18.855Z,20.2581
2023-03-26T09:30:20.505Z,20.2397
2023-03-26T09:31:22.202Z,20.2522
2023-03-26T09:32:23.942Z,20.2551
2023-03-26T09:33:25.477Z,20.2783
2023-03-26T09:34:27.144Z,20.2604
2023-03-26T09:35:28.764Z,20.2604
2023-03-26T09:36:30.472Z,20.2707
2023-03-26T09:37:32.083Z,20.2405
2023-03-26T09:38:33.741Z,20.2312
2023-03-26T09:39:35.363Z,20.2569
2023-03-26T09:40:37.035Z,20.2542
2023-03-26T09:41:38.658Z,20.2078
2023-03-26T09:42:40.359Z,20.1951
2023-03-26T09:43:41.996Z,19.7898
2023-03-26T09:44:43.628Z,19.3597
2023-03-26T09:45:45.275Z,19.5261
2023-03-26T09:46:46.936Z,19.7031
2023-03-26T09:47:48.648Z,19.8293
2023-03-26T09:48:50.237Z,19.9227
2023-03-26T09:49:51.865Z,19.9726
2023-03-26T09:50:53.719Z,20.0047
2023-03-26T09:51:55.146Z,20.0414
2023-03-26T09:52:56.845Z,20.0538
2023-03-26T09:53:58.447Z,20.0663
2023-03-26T09:55:00.162Z,20.0714
2023-03-26T09:56:01.772Z,20.0895
2023-03-26T09:57:03.465Z,20.0788
2023-03-26T09:58:05.134Z,20.0889
2023-03-26T09:59:06.854Z,20.0936
2023-03-26T10:00:08.423Z,20.0918
2023-03-26T10:01:10.144Z,20.0932
2023-03-26T10:02:11.717Z,20.0718
2023-03-26T10:03:13.465Z,19.8685
2023-03-26T10:04:15.024Z,19.2110
2023-03-26T10:05:16.690Z,18.7870
2023-03-26T10:06:18.313Z,18.6794
2023-03-26T10:07:19.984Z,18.6728
2023-03-26T10:08:21.641Z,18.7640
2023-03-26T10:09:23.290Z,18.9199
2023-03-26T10:10:24.906Z,19.0109
2023-03-26T10:11:26.588Z,19.1325
2023-03-26T10:12:28.222Z,19.2835
2023-03-26T10:13:29.928Z,19.3936
2023-03-26T10:14:31.532Z,19.4739
2023-03-26T10:15:33.198Z,19.5357
2023-03-26T10:16:34.880Z,19.5949
2023-03-26T10:17:37.179Z,19.6343
2023-03-26T10:18:38.166Z,19.6773
2023-03-26T10:19:39.808Z,19.7046
2023-03-26T10:20:41.434Z,19.7237
2023-03-26T10:21:43.096Z,19.7280
2023-03-26T10:22:44.742Z,19.7502
2023-03-26T10:23:46.425Z,19.7711
2023-03-26T10:24:48.044Z,19.7910
2023-03-26T10:25:49.745Z,19.8165
2023-03-26T10:27:08.589Z,19.8219
2023-03-26T10:27:53.014Z,19.8206
2023-03-26T10:28:54.677Z,19.8432
2023-03-26T10:29:56.325Z,19.8344
2023-03-26T10:30:58.118Z,19.8330
2023-03-26T10:31:59.616Z,19.8416
2023-03-26T10:33:01.324Z,19.8492
2023-03-26T10:34:02.959Z,19.8360
2023-03-26T10:35:04.555Z,19.8403
2023-03-26T10:36:06.251Z,19.8710
2023-03-26T10:37:07.851Z,19.8853
2023-03-26T10:38:09.527Z,19.8804
2023-03-26T10:39:11.183Z,19.9057
2023-03-26T10:40:12.830Z,19.9055
2023-03-26T10:41:14.491Z,19.9135
2023-03-26T10:42:16.123Z,19.9211
2023-03-26T10:43:17.763Z,19.9363
2023-03-26T10:44:19.508Z,19.9239
2023-03-26T10:45:21.096Z,19.9291
2023-03-26T10:46:22.772Z,19.9369
2023-03-26T10:47:24.432Z,19.9389
2023-03-26T10:48:26.054Z,19.9377
2023-03-26T10:49:27.750Z,19.9389
2023-03-26T10:50:29.362Z,19.9145
2023-03-26T10:51:30.972Z,19.9131
2023-03-26T10:52:32.670Z,19.9262
2023-03-26T10:53:34.295Z,19.9585
2023-03-26T10:54:35.999Z,19.9757
2023-03-26T10:55:37.596Z,19.9792
2023-03-26T10:56:39.290Z,19.9741
2023-03-26T10:57:40.896Z,19.9765
2023-03-26T10:58:48.590Z,19.9897
2023-03-26T10:59:44.247Z,19.9878
2023-03-26T11:00:45.892Z,19.9897
2023-03-26T11:01:47.524Z,19.9882
2023-03-26T11:02:49.225Z,20.0036
2023-03-26T11:03:50.827Z,19.9999
2023-03-26T11:04:52.517Z,20.0057
2023-03-26T11:05:54.191Z,20.0100
2023-03-26T11:06:55.800Z,19.9997
2023-03-26T11:07:57.430Z,19.9599
2023-03-26T11:08:59.136Z,19.9730
2023-03-26T11:10:00.746Z,19.9258
2023-03-26T11:11:02.395Z,19.9342
2023-03-26T11:12:26.223Z,19.9492
2023-03-26T11:13:05.691Z,19.9784
2023-03-26T11:14:07.339Z,19.9597
2023-03-26T11:15:09.106Z,19.9802
2023-03-26T11:16:10.642Z,19.9821
2023-03-26T11:17:14.915Z,19.9782
2023-03-26T11:18:13.963Z,19.9753
2023-03-26T11:19:15.591Z,20.0024
2023-03-26T11:20:17.292Z,20.0355
2023-03-26T11:21:20.635Z,20.0336
2023-03-26T11:22:20.527Z,20.0240
2023-03-26T11:23:22.211Z,20.0299
2023-03-26T11:24:23.812Z,20.0365
2023-03-26T11:25:25.532Z,20.0562
2023-03-26T11:26:27.137Z,20.0536
2023-03-26T11:27:28.792Z,20.0158
2023-03-26T11:28:30.446Z,20.0174
2023-03-26T11:29:33.494Z,20.0191
2023-03-26T11:30:33.767Z,20.0429
2023-03-26T11:31:35.433Z,20.0698
2023-03-26T11:32:37.070Z,20.1041
2023-03-26T11:33:38.689Z,20.0819
2023-03-26T11:34:40.347Z,20.0973
2023-03-26T11:35:42.013Z,20.0698
2023-03-26T11:36:43.630Z,20.0610
2023-03-26T11:37:45.308Z,20.0628
2023-03-26T11:38:46.965Z,20.0776
2023-03-26T11:39:48.584Z,20.0817
2023-03-26T11:40:50.249Z,20.0486
2023-03-26T11:41:51.901Z,20.0258
2023-03-26T11:42:53.540Z,20.0285
2023-03-26T11:43:55.217Z,20.0727
2023-03-26T11:44:56.861Z,20.1047
2023-03-26T11:45:58.550Z,20.1257
2023-03-26T11:47:00.126Z,20.1291
2023-03-26T11:48:01.854Z,20.1061
2023-03-26T11:49:03.407Z,20.1033
2023-03-26T11:50:05.143Z,20.1074
2023-03-26T11:51:06.783Z,20.1131
2023-03-26T11:52:08.393Z,20.1129
2023-03-26T11:53:10.039Z,20.1172
2023-03-26T11:54:11.714Z,20.1201
2023-03-26T11:55:13.343Z,20.1195
2023-03-26T11:56:15.174Z,20.1137
2023-03-26T11:57:16.694Z,20.1419
2023-03-26T11:58:18.307Z,20.1376
2023-03-26T11:59:21.650Z,20.1437
2023-03-26T12:00:21.607Z,20.1462
2023-03-26T12:01:23.250Z,20.1279
2023-03-26T12:02:25.076Z,20.1298
2023-03-26T12:03:26.551Z,20.1263
2023-03-26T12:04:30.604Z,20.1359
2023-03-26T12:05:29.840Z,20.1294
2023-03-26T12:06:31.536Z,20.1372
2023-03-26T12:07:33.146Z,20.1443
2023-03-26T12:08:34.814Z,20.1287
2023-03-26T12:09:36.444Z,20.1267
2023-03-26T12:10:38.543Z,20.1349
2023-03-26T12:11:39.771Z,20.1234
2023-03-26T12:12:41.424Z,20.1252
2023-03-26T12:13:43.052Z,20.1316
2023-03-26T12:14:44.703Z,20.1308
2023-03-26T12:15:46.350Z,20.1289
2023-03-26T12:16:48.060Z,20.1367
2023-03-26T12:17:49.651Z,20.1230
2023-03-26T12:18:51.307Z,20.1252
2023-03-26T12:19:52.947Z,20.1244
2023-03-26T12:20:54.734Z,20.1252
2023-03-26T12:21:56.265Z,20.1259
2023-03-26T12:22:57.913Z,20.1232
2023-03-26T12:23:59.548Z,20.1070
2023-03-26T12:25:01.200Z,20.1084